createdAt,value
2023-05-22T00:00:35.608Z,76.95
2023-05-22T00:03:43.802Z,77.23
2023-05-22T00:06:52.455Z,78.08
2023-05-22T00:10:03.730Z,78.05
2023-05-22T00:13:12.133Z,77.54
2023-05-22T00:16:20.750Z,77.38
2023-05-22T00:19:30.517Z,77.80
2023-05-22T00:22:39.244Z,77.88
2023-05-22T00:25:50.484Z,77.72
2023-05-22T00:28:58.992Z,77.85
2023-05-22T00:32:08.435Z,77.79
2023-05-22T00:35:16.876Z,78.61
2023-05-22T00:38:33.580Z,78.59
2023-05-22T00:41:43.290Z,78.79
2023-05-22T00:44:51.772Z,78.29
2023-05-22T00:48:00.329Z,78.48
2023-05-22T00:51:09.312Z,79.17
2023-05-22T00:54:18.903Z,79.00
2023-05-22T00:57:30.350Z,78.54
2023-05-22T01:00:40.169Z,79.43
2023-05-22T01:03:49.487Z,78.89
2023-05-22T01:06:57.796Z,78.96
2023-05-22T01:10:07.388Z,79.55
2023-05-22T01:13:29.869Z,79.19
2023-05-22T01:16:51.585Z,79.83
2023-05-22T01:20:12.020Z,79.55
2023-05-22T01:24:02.255Z,79.93
2023-05-22T01:27:55.464Z,79.56
2023-05-22T01:31:11.244Z,80.49
2023-05-22T01:34:22.113Z,80.11
2023-05-22T01:37:31.862Z,80.97
2023-05-22T01:40:41.708Z,80.74
2023-05-22T01:43:50.400Z,80.75
2023-05-22T01:47:05.108Z,81.02
2023-05-22T01:50:14.848Z,80.64
2023-05-22T01:53:34.676Z,80.76
2023-05-22T01:56:49.914Z,80.33
2023-05-22T02:00:09.749Z,80.42
2023-05-22T02:03:32.466Z,80.03
2023-05-22T02:06:42.380Z,79.00
2023-05-22T02:09:53.694Z,79.41
2023-05-22T02:13:03.029Z,79.76
2023-05-22T02:16:12.598Z,79.33
2023-05-22T02:19:22.697Z,80.93
2023-05-22T02:22:31.321Z,80.98
2023-05-22T02:25:39.553Z,79.34
2023-05-22T02:28:47.676Z,80.12
2023-05-22T02:31:55.846Z,80.33
2023-05-22T02:35:06.019Z,80.97
2023-05-22T02:38:14.511Z,81.86
2023-05-22T02:41:22.753Z,82.16
2023-05-22T02:44:31.169Z,81.57
2023-05-22T02:47:40.085Z,81.73
2023-05-22T02:50:49.698Z,82.19
2023-05-22T02:53:58.565Z,82.49
2023-05-22T02:57:07.007Z,81.89
2023-05-22T03:00:16.949Z,81.94
2023-05-22T03:03:25.578Z,81.95
2023-05-22T03:06:37.110Z,82.16
2023-05-22T03:09:45.254Z,82.52
2023-05-22T03:12:53.384Z,82.43
2023-05-22T03:16:02.242Z,81.34
2023-05-22T03:19:13.874Z,81.87
2023-05-22T03:22:23.755Z,81.60
2023-05-22T03:25:32.450Z,81.36
2023-05-22T03:28:40.786Z,82.04
2023-05-22T03:31:49.140Z,81.71
2023-05-22T03:34:58.550Z,80.38
2023-05-22T03:38:08.291Z,80.44
2023-05-22T03:41:16.582Z,80.21
2023-05-22T03:44:25.637Z,79.35
2023-05-22T03:47:35.029Z,78.85
2023-05-22T03:50:44.073Z,78.58
2023-05-22T03:53:55.234Z,77.79
2023-05-22T03:57:03.526Z,77.71
2023-05-22T04:00:13.714Z,77.18
2023-05-22T04:03:22.597Z,76.53
2023-05-22T04:06:32.972Z,76.43
2023-05-22T04:09:42.613Z,76.22
2023-05-22T04:12:51.361Z,76.26
2023-05-22T04:15:59.752Z,75.00
2023-05-22T04:19:09.672Z,75.24
2023-05-22T04:22:18.650Z,75.12
2023-05-22T04:25:28.331Z,75.08
2023-05-22T04:28:36.551Z,74.03
2023-05-22T04:31:44.909Z,72.83
2023-05-22T04:34:54.717Z,73.30
2023-05-22T04:38:03.650Z,72.58
2023-05-22T04:41:14.349Z,72.79
2023-05-22T04:44:23.001Z,72.63
2023-05-22T04:47:38.384Z,72.16
2023-05-22T04:50:48.570Z,71.88
2023-05-22T04:53:58.363Z,71.86
2023-05-22T04:57:09.513Z,71.07
2023-05-22T05:00:20.680Z,71.19
2023-05-22T05:03:29.896Z,70.78
2023-05-22T05:06:39.919Z,70.49
2023-05-22T05:09:48.190Z,69.46
2023-05-22T05:12:57.831Z,68.87
2023-05-22T05:16:06.671Z,68.60
2023-05-22T05:19:15.509Z,68.51
2023-05-22T05:22:23.814Z,68.07
2023-05-22T05:25:31.943Z,67.90
2023-05-22T05:28:41.880Z,67.78
2023-05-22T05:31:50.940Z,67.44
2023-05-22T05:35:12.849Z,66.62
2023-05-22T05:38:26.412Z,66.43
2023-05-22T05:41:36.815Z,65.45
2023-05-22T05:44:51.244Z,65.34
2023-05-22T05:48:00.389Z,64.42
2023-05-22T05:51:08.886Z,62.53
2023-05-22T05:54:21.841Z,62.30
2023-05-22T05:57:32.620Z,61.65
2023-05-22T06:00:42.531Z,60.64
2023-05-22T06:03:53.820Z,60.37
2023-05-22T06:07:07.955Z,59.31
2023-05-22T06:10:21.065Z,54.87
2023-05-22T06:13:38.616Z,45.58
2023-05-22T06:16:48.795Z,42.98
2023-05-22T06:19:57.606Z,39.17
2023-05-22T06:23:06.443Z,37.15
2023-05-22T06:26:17.035Z,36.01
2023-05-22T06:29:26.698Z,36.80
2023-05-22T06:32:37.281Z,34.54
2023-05-22T06:35:45.685Z,35.23
2023-05-22T06:38:55.666Z,33.97
2023-05-22T06:42:23.885Z,35.55
2023-05-22T06:46:01.646Z,33.34
2023-05-22T06:49:13.957Z,34.55
2023-05-22T06:52:27.391Z,34.91
2023-05-22T06:55:35.980Z,35.11
2023-05-22T06:58:51.980Z,34.42
2023-05-22T07:02:03.512Z,32.44
2023-05-22T07:05:21.136Z,34.36
2023-05-22T07:08:38.347Z,36.59
2023-05-22T07:11:47.291Z,38.19
2023-05-22T07:15:00.006Z,37.67
2023-05-22T07:18:09.708Z,34.90
2023-05-22T07:21:23.838Z,36.37
2023-05-22T07:24:33.359Z,35.86
2023-05-22T07:27:42.036Z,36.92
2023-05-22T07:30:50.440Z,37.01
2023-05-22T07:33:58.670Z,39.90
2023-05-22T07:37:13.799Z,41.85
2023-05-22T07:40:24.545Z,40.29
2023-05-22T07:43:34.721Z,38.92
2023-05-22T07:46:43.559Z,37.52
2023-05-22T07:49:55.846Z,38.34
2023-05-22T07:53:07.249Z,35.06
2023-05-22T07:56:19.252Z,36.75
2023-05-22T07:59:29.780Z,35.29
2023-05-22T08:02:40.701Z,34.94
2023-05-22T08:05:49.277Z,41.97
2023-05-22T08:09:00.103Z,46.69
2023-05-22T08:12:09.554Z,43.03
2023-05-22T08:15:18.176Z,41.56
2023-05-22T08:18:28.039Z,42.12
2023-05-22T08:21:37.500Z,46.22
2023-05-22T08:24:47.553Z,44.34
2023-05-22T08:27:55.742Z,41.23
2023-05-22T08:31:04.085Z,41.72
2023-05-22T08:34:12.279Z,43.68
2023-05-22T08:37:21.217Z,44.12
2023-05-22T08:40:38.348Z,43.69
2023-05-22T08:43:47.298Z,44.17
2023-05-22T08:46:56.702Z,42.93
2023-05-22T08:50:07.219Z,41.91
2023-05-22T08:53:18.638Z,41.10
2023-05-22T08:56:29.755Z,45.14
2023-05-22T08:59:40.536Z,44.55
2023-05-22T09:02:50.775Z,45.47
2023-05-22T09:05:59.391Z,45.08
2023-05-22T09:09:07.828Z,42.48
2023-05-22T09:12:17.670Z,40.51
2023-05-22T09:15:31.025Z,40.78
2023-05-22T09:18:40.166Z,41.79
2023-05-22T09:21:48.610Z,40.07
2023-05-22T09:24:59.257Z,44.19
2023-05-22T09:28:09.076Z,44.43
2023-05-22T09:31:17.547Z,42.81
2023-05-22T09:34:29.924Z,44.98
2023-05-22T09:37:38.891Z,42.69
2023-05-22T09:40:47.229Z,45.27
2023-05-22T09:43:58.314Z,42.78
2023-05-22T09:47:11.181Z,42.70
2023-05-22T09:50:19.369Z,40.60
2023-05-22T09:53:29.513Z,44.62
2023-05-22T09:56:40.378Z,44.27
2023-05-22T09:59:54.847Z,40.58
2023-05-22T10:03:11.989Z,42.21
2023-05-22T10:06:22.646Z,41.57
2023-05-22T10:09:35.709Z,42.41
2023-05-22T10:12:53.253Z,40.00
2023-05-22T10:16:04.694Z,41.65
2023-05-22T10:19:13.915Z,42.79
2023-05-22T10:22:25.994Z,44.02
2023-05-22T10:25:35.138Z,41.61
2023-05-22T10:28:52.700Z,41.68
2023-05-22T10:32:14.037Z,44.34
2023-05-22T10:35:44.434Z,41.38
2023-05-22T10:39:11.957Z,43.04
2023-05-22T10:42:20.502Z,46.08
2023-05-22T10:45:29.939Z,45.08
2023-05-22T10:48:41.393Z,45.04
2023-05-22T10:51:49.703Z,44.27
2023-05-22T10:55:01.185Z,41.40
2023-05-22T10:58:14.885Z,40.96
2023-05-22T11:01:27.029Z,42.49
2023-05-22T11:04:43.350Z,42.85
2023-05-22T11:07:51.594Z,42.99
2023-05-22T11:10:59.940Z,40.70
2023-05-22T11:14:09.816Z,41.30
2023-05-22T11:17:20.386Z,43.30
2023-05-22T11:20:31.063Z,44.84
2023-05-22T11:23:39.906Z,44.08
2023-05-22T11:27:03.542Z,43.58
2023-05-22T11:30:13.239Z,42.63
2023-05-22T11:33:21.494Z,40.28
2023-05-22T11:36:31.722Z,43.52
2023-05-22T11:39:39.991Z,43.75
2023-05-22T11:42:48.971Z,42.96
2023-05-22T11:46:02.743Z,42.84
2023-05-22T11:49:13.189Z,40.71
2023-05-22T11:52:22.938Z,40.94
2023-05-22T11:55:31.107Z,40.52
2023-05-22T11:58:39.276Z,41.57
2023-05-22T12:01:50.833Z,40.73
2023-05-22T12:04:59.937Z,39.11
2023-05-22T12:08:09.719Z,38.99
2023-05-22T12:11:18.397Z,38.38
2023-05-22T12:14:28.965Z,39.71
2023-05-22T12:17:38.607Z,38.55
2023-05-22T12:20:47.207Z,37.04
2023-05-22T12:23:56.736Z,39.73
2023-05-22T12:27:10.299Z,36.60
2023-05-22T12:30:20.386Z,41.38
2023-05-22T12:33:30.721Z,39.69
2023-05-22T12:36:41.857Z,39.83
2023-05-22T12:39:59.593Z,38.77
2023-05-22T12:43:07.822Z,39.83
2023-05-22T12:46:16.072Z,39.61
2023-05-22T12:49:24.319Z,42.79
2023-05-22T12:52:32.525Z,45.18
2023-05-22T12:55:42.822Z,42.44
2023-05-22T12:58:51.569Z,39.49
2023-05-22T13:02:02.320Z,43.25
2023-05-22T13:05:11.188Z,45.01
2023-05-22T13:08:20.289Z,44.64
2023-05-22T13:11:29.899Z,43.90
2023-05-22T13:14:38.942Z,43.76
2023-05-22T13:17:47.222Z,43.12
2023-05-22T13:20:56.338Z,42.12
2023-05-22T13:24:04.953Z,40.59
2023-05-22T13:27:14.617Z,41.04
2023-05-22T13:30:23.121Z,43.26
2023-05-22T13:33:31.711Z,40.34
2023-05-22T13:36:40.042Z,40.27
2023-05-22T13:39:48.337Z,42.18
2023-05-22T13:42:58.296Z,42.14
2023-05-22T13:46:06.639Z,41.13
2023-05-22T13:49:14.921Z,41.55
2023-05-22T13:52:23.703Z,41.48
2023-05-22T13:55:31.932Z,42.53
2023-05-22T13:58:41.744Z,43.07
2023-05-22T14:01:50.147Z,41.92
2023-05-22T14:04:58.460Z,41.34
2023-05-22T14:08:06.837Z,42.84
2023-05-22T14:11:17.503Z,41.58
2023-05-22T14:14:28.144Z,43.43
2023-05-22T14:17:36.503Z,43.24
2023-05-22T14:20:45.679Z,42.38
2023-05-22T14:23:54.157Z,42.14
2023-05-22T14:27:02.369Z,42.84
2023-05-22T14:30:13.586Z,40.38
2023-05-22T14:33:21.861Z,41.28
2023-05-22T14:36:30.203Z,41.31
2023-05-22T14:39:38.393Z,41.23
2023-05-22T14:42:48.133Z,42.69
2023-05-22T14:45:59.239Z,43.41
2023-05-22T14:49:07.547Z,43.60
2023-05-22T14:52:15.960Z,45.12
2023-05-22T14:55:27.667Z,44.74
2023-05-22T14:58:36.057Z,44.52
2023-05-22T15:01:49.995Z,46.40
2023-05-22T15:04:58.479Z,47.32
2023-05-22T15:08:09.510Z,46.15
2023-05-22T15:11:17.983Z,46.42
2023-05-22T15:14:26.447Z,46.89
2023-05-22T15:17:36.837Z,46.93
2023-05-22T15:20:45.860Z,47.40
2023-05-22T15:23:54.347Z,47.61
2023-05-22T15:27:02.769Z,48.88
2023-05-22T15:30:12.437Z,48.18
2023-05-22T15:33:22.648Z,48.66
2023-05-22T15:36:31.391Z,47.47
2023-05-22T15:39:39.818Z,49.36
2023-05-22T15:42:48.218Z,48.94
2023-05-22T15:45:56.529Z,49.31
2023-05-22T15:49:06.637Z,47.84
2023-05-22T15:52:14.999Z,47.73
2023-05-22T15:55:23.536Z,47.49
2023-05-22T15:58:32.231Z,46.73
2023-05-22T16:01:40.554Z,45.87
2023-05-22T16:04:50.750Z,47.52
2023-05-22T16:07:58.979Z,44.48
2023-05-22T16:11:07.846Z,43.99
2023-05-22T16:14:16.286Z,45.24
2023-05-22T16:17:24.510Z,45.25
2023-05-22T16:20:34.407Z,45.61
2023-05-22T16:23:42.687Z,44.82
2023-05-22T16:26:51.153Z,42.57
2023-05-22T16:30:02.439Z,44.55
2023-05-22T16:33:11.034Z,47.64
2023-05-22T16:36:21.039Z,47.81
2023-05-22T16:39:29.369Z,47.47
2023-05-22T16:42:38.480Z,46.73
2023-05-22T16:45:50.959Z,44.01
2023-05-22T16:48:59.866Z,39.21
2023-05-22T16:52:09.604Z,37.75
2023-05-22T16:55:18.318Z,33.99
2023-05-22T16:58:26.792Z,30.33
2023-05-22T17:01:35.165Z,28.05
2023-05-22T17:04:43.729Z,26.37
2023-05-22T17:07:57.534Z,25.40
2023-05-22T17:11:06.078Z,24.72
2023-05-22T17:14:14.749Z,24.60
2023-05-22T17:17:23.166Z,23.71
2023-05-22T17:20:32.716Z,24.84
2023-05-22T17:23:42.979Z,25.57
2023-05-22T17:26:51.532Z,25.48
2023-05-22T17:29:59.760Z,25.78
2023-05-22T17:33:08.006Z,27.56
2023-05-22T17:36:16.302Z,31.43
2023-05-22T17:39:26.847Z,37.04
2023-05-22T17:42:35.595Z,41.72
2023-05-22T17:45:44.683Z,45.35
2023-05-22T17:48:55.230Z,49.23
2023-05-22T17:52:03.617Z,51.04
2023-05-22T17:55:13.408Z,53.19
2023-05-22T17:58:22.075Z,55.26
2023-05-22T18:01:31.757Z,56.42
2023-05-22T18:04:40.113Z,56.43
2023-05-22T18:07:49.325Z,58.43
2023-05-22T18:10:59.328Z,59.29
2023-05-22T18:14:08.225Z,59.84
2023-05-22T18:17:16.786Z,61.23
2023-05-22T18:20:25.240Z,61.33
2023-05-22T18:23:34.012Z,62.26
2023-05-22T18:26:43.684Z,61.54
2023-05-22T18:29:52.332Z,62.02
2023-05-22T18:33:00.989Z,63.32
2023-05-22T18:36:09.607Z,63.99
2023-05-22T18:39:18.027Z,64.75
2023-05-22T18:42:28.011Z,64.46
2023-05-22T18:45:36.248Z,64.83
2023-05-22T18:48:44.556Z,65.12
2023-05-22T18:51:53.456Z,65.46
2023-05-22T18:55:03.036Z,66.54
2023-05-22T18:58:13.670Z,66.87
2023-05-22T19:01:22.657Z,67.83
2023-05-22T19:04:31.162Z,68.42
2023-05-22T19:07:39.823Z,69.09
2023-05-22T19:10:48.644Z,69.85
2023-05-22T19:13:59.726Z,70.12
2023-05-22T19:17:08.204Z,70.39
2023-05-22T19:20:17.211Z,70.40
2023-05-22T19:23:25.870Z,70.58
2023-05-22T19:26:34.481Z,70.80
2023-05-22T19:29:44.580Z,71.21
2023-05-22T19:32:55.721Z,71.50
2023-05-22T19:36:06.484Z,72.04
2023-05-22T19:39:14.657Z,71.91
2023-05-22T19:42:23.103Z,72.81
2023-05-22T19:45:33.110Z,73.38
2023-05-22T19:48:41.507Z,73.05
2023-05-22T19:51:49.851Z,74.55
2023-05-22T19:54:59.431Z,74.46
2023-05-22T19:58:07.965Z,73.80
2023-05-22T20:01:17.776Z,74.86
2023-05-22T20:04:26.097Z,74.19
2023-05-22T20:07:34.546Z,73.29
2023-05-22T20:10:42.814Z,72.87
2023-05-22T20:13:51.037Z,72.66
2023-05-22T20:17:01.391Z,72.66
2023-05-22T20:20:10.992Z,72.35
2023-05-22T20:23:19.215Z,72.87
2023-05-22T20:26:27.872Z,72.64
2023-05-22T20:29:36.855Z,73.48
2023-05-22T20:32:47.581Z,73.95
2023-05-22T20:35:55.870Z,74.05
2023-05-22T20:39:05.898Z,74.02
2023-05-22T20:42:14.455Z,74.41
2023-05-22T20:45:23.074Z,74.72
2023-05-22T20:48:32.651Z,74.68
2023-05-22T20:51:41.903Z,75.19
2023-05-22T20:54:50.694Z,74.66
2023-05-22T20:57:59.153Z,75.33
2023-05-22T21:01:07.454Z,75.49
2023-05-22T21:04:17.276Z,75.48
2023-05-22T21:07:25.532Z,75.67
2023-05-22T21:10:33.683Z,75.64
2023-05-22T21:13:41.874Z,76.44
2023-05-22T21:16:50.050Z,76.46
2023-05-22T21:19:59.684Z,76.09
2023-05-22T21:23:08.043Z,76.55
2023-05-22T21:26:18.014Z,76.48
2023-05-22T21:29:26.278Z,77.05
2023-05-22T21:32:34.897Z,77.50
2023-05-22T21:35:44.617Z,77.66
2023-05-22T21:38:53.199Z,77.55
2023-05-22T21:42:01.509Z,78.32
2023-05-22T21:45:11.138Z,78.58
2023-05-22T21:48:19.278Z,78.83
2023-05-22T21:51:28.710Z,79.23
2023-05-22T21:54:36.890Z,79.40
2023-05-22T21:57:46.145Z,79.30
2023-05-22T22:00:54.237Z,79.09
2023-05-22T22:04:03.641Z,79.23
2023-05-22T22:07:13.592Z,79.54
2023-05-22T22:10:22.214Z,78.74
2023-05-22T22:13:30.490Z,79.06
2023-05-22T22:16:40.644Z,79.84
2023-05-22T22:19:48.909Z,79.53
2023-05-22T22:22:58.385Z,79.62
2023-05-22T22:26:06.706Z,79.84
2023-05-22T22:29:15.077Z,79.79
2023-05-22T22:32:23.258Z,79.41
2023-05-22T22:35:31.401Z,79.60
2023-05-22T22:38:41.264Z,80.26
2023-05-22T22:41:49.607Z,79.57
2023-05-22T22:44:57.801Z,80.47
2023-05-22T22:48:06.807Z,79.93
2023-05-22T22:51:15.277Z,80.62
2023-05-22T22:54:24.798Z,80.47
2023-05-22T22:57:33.346Z,81.15
2023-05-22T23:00:41.454Z,81.10
2023-05-22T23:03:49.557Z,80.74
2023-05-22T23:06:58.324Z,81.72
2023-05-22T23:10:10.023Z,81.05
2023-05-22T23:13:18.208Z,81.61
2023-05-22T23:16:26.582Z,81.93
2023-05-22T23:19:34.894Z,81.70
2023-05-22T23:22:47.255Z,81.91
2023-05-22T23:25:58.847Z,81.86
2023-05-22T23:29:08.199Z,81.58
2023-05-22T23:32:16.648Z,80.83
2023-05-22T23:35:25.577Z,79.72
2023-05-22T23:38:33.771Z,81.29
2023-05-22T23:41:44.408Z,79.87
2023-05-22T23:44:52.493Z,79.71
2023-05-22T23:48:00.731Z,80.34
2023-05-22T23:51:09.889Z,79.99
2023-05-22T23:54:18.366Z,80.06
2023-05-22T23:57:28.079Z,80.55
